createdAt,value
2017-09-26T00:01:18.741Z,31.33
2017-09-26T00:03:47.630Z,40.30
2017-09-26T00:06:16.514Z,38.27
2017-09-26T00:08:45.415Z,30.80
2017-09-26T00:11:14.308Z,32.50
2017-09-26T00:13:43.204Z,29.47
2017-09-26T00:16:12.086Z,31.63
2017-09-26T00:18:41.008Z,31.77
2017-09-26T00:21:09.127Z,30.70
2017-09-26T00:23:37.256Z,36.57
2017-09-26T00:26:05.399Z,30.27
2017-09-26T00:28:34.291Z,30.60
2017-09-26T00:31:03.196Z,29.20
2017-09-26T00:33:32.087Z,30.10
2017-09-26T00:36:04.344Z,27.00
2017-09-26T00:38:33.235Z,28.47
2017-09-26T00:41:02.139Z,24.27
2017-09-26T00:43:31.024Z,26.20
2017-09-26T00:45:59.923Z,26.33
2017-09-26T00:48:28.060Z,28.67
2017-09-26T00:50:56.194Z,29.67
2017-09-26T00:53:24.310Z,23.20
2017-09-26T00:55:52.441Z,27.00
2017-09-26T00:58:20.585Z,24.53
2017-09-26T01:00:49.479Z,31.97
2017-09-26T01:03:18.363Z,29.87
2017-09-26T01:08:52.820Z,23.40
2017-09-26T01:11:20.954Z,24.50
2017-09-26T01:13:49.070Z,24.20
2017-09-26T01:16:17.207Z,22.50
2017-09-26T01:18:45.323Z,25.10
2017-09-26T01:21:13.452Z,24.37
2017-09-26T01:23:41.583Z,22.60
2017-09-26T01:26:09.718Z,28.13
2017-09-26T01:28:38.619Z,28.93
2017-09-26T01:31:07.516Z,24.10
2017-09-26T01:33:36.399Z,24.00
2017-09-26T01:36:05.300Z,24.33
2017-09-26T01:38:33.421Z,24.27
2017-09-26T01:41:19.467Z,26.10
2017-09-26T01:43:48.357Z,29.23
2017-09-26T01:46:17.255Z,26.07
2017-09-26T01:48:45.390Z,24.10
2017-09-26T01:51:13.523Z,25.10
2017-09-26T01:53:41.647Z,24.33
2017-09-26T01:56:15.265Z,25.40
2017-09-26T01:58:54.057Z,23.93
2017-09-26T02:01:22.199Z,24.63
2017-09-26T02:03:50.324Z,28.60
2017-09-26T02:06:19.227Z,24.80
2017-09-26T02:08:48.123Z,26.03
2017-09-26T02:11:17.015Z,21.27
2017-09-26T02:13:45.907Z,24.50
2017-09-26T02:16:14.804Z,25.60
2017-09-26T02:18:43.696Z,30.73
2017-09-26T02:21:11.827Z,27.80
2017-09-26T02:23:39.950Z,26.60
2017-09-26T02:26:08.087Z,27.97
2017-09-26T02:28:36.215Z,30.63
2017-09-26T02:31:04.358Z,29.33
2017-09-26T02:33:33.247Z,35.67
2017-09-26T02:36:02.151Z,35.13
2017-09-26T02:38:31.036Z,32.30
2017-09-26T02:40:59.935Z,23.93
2017-09-26T02:43:28.820Z,28.97
2017-09-26T02:45:57.715Z,29.40
2017-09-26T02:48:26.607Z,28.63
2017-09-26T02:50:55.524Z,30.77
2017-09-26T02:53:23.643Z,34.40
2017-09-26T02:55:51.778Z,41.33
2017-09-26T02:58:19.906Z,35.47
2017-09-26T03:00:48.808Z,35.30
2017-09-26T03:03:17.691Z,38.00
2017-09-26T03:05:46.587Z,37.47
2017-09-26T03:08:15.475Z,33.73
2017-09-26T03:10:44.380Z,35.40
2017-09-26T03:13:13.263Z,32.83
2017-09-26T03:15:42.226Z,33.17
2017-09-26T03:18:10.350Z,49.63
2017-09-26T03:20:38.483Z,35.43
2017-09-26T03:23:06.609Z,35.50
2017-09-26T03:25:34.743Z,36.90
2017-09-26T03:28:03.638Z,34.83
2017-09-26T03:30:32.542Z,34.10
2017-09-26T03:33:00.676Z,34.33
2017-09-26T03:35:28.823Z,29.20
2017-09-26T03:37:56.951Z,27.67
2017-09-26T03:40:25.855Z,29.70
2017-09-26T03:42:54.759Z,32.13
2017-09-26T03:45:22.886Z,35.40
2017-09-26T03:47:51.023Z,33.67
2017-09-26T03:50:19.166Z,30.43
2017-09-26T03:52:48.058Z,36.80
2017-09-26T03:55:16.951Z,40.40
2017-09-26T03:57:45.868Z,30.63
2017-09-26T04:00:13.987Z,35.03
2017-09-26T04:02:42.123Z,32.23
2017-09-26T04:05:10.256Z,27.97
2017-09-26T04:07:39.156Z,30.90
2017-09-26T04:10:08.047Z,31.67
2017-09-26T04:12:36.961Z,46.47
2017-09-26T04:15:05.086Z,50.00
2017-09-26T04:17:33.225Z,33.70
2017-09-26T04:20:02.126Z,28.50
2017-09-26T04:22:30.267Z,26.37
2017-09-26T04:24:58.401Z,28.87
2017-09-26T04:27:26.543Z,28.20
2017-09-26T04:29:54.668Z,31.27
2017-09-26T04:32:23.575Z,29.90
2017-09-26T04:34:51.700Z,28.90
2017-09-26T04:37:19.845Z,25.30
2017-09-26T04:39:48.737Z,27.07
2017-09-26T04:42:17.658Z,26.40
2017-09-26T04:44:45.794Z,29.80
2017-09-26T04:47:13.933Z,30.23
2017-09-26T04:49:42.842Z,29.60
2017-09-26T04:52:10.979Z,28.80
2017-09-26T04:54:39.124Z,34.83
2017-09-26T04:57:08.035Z,35.27
2017-09-26T04:59:36.172Z,30.47
2017-09-26T05:02:05.095Z,33.40
2017-09-26T05:04:33.175Z,35.03
2017-09-26T05:07:01.262Z,31.30
2017-09-26T05:09:29.331Z,28.43
2017-09-26T05:11:57.420Z,27.80
2017-09-26T05:14:26.258Z,29.63
2017-09-26T05:16:54.349Z,27.50
2017-09-26T05:19:22.444Z,25.77
2017-09-26T05:21:50.519Z,27.73
2017-09-26T05:24:18.587Z,22.03
2017-09-26T05:26:46.772Z,26.50
2017-09-26T05:29:15.615Z,28.87
2017-09-26T05:31:43.704Z,28.00
2017-09-26T05:34:11.779Z,30.97
2017-09-26T05:36:39.861Z,28.90
2017-09-26T05:39:07.952Z,34.20
2017-09-26T05:41:36.809Z,33.90
2017-09-26T05:44:05.095Z,34.57
2017-09-26T05:46:33.171Z,29.43
2017-09-26T05:49:01.244Z,34.50
2017-09-26T05:51:29.332Z,35.77
2017-09-26T05:53:57.403Z,39.03
2017-09-26T05:56:25.489Z,37.03
2017-09-26T05:58:54.343Z,44.87
2017-09-26T06:01:22.427Z,33.07
2017-09-26T06:03:50.498Z,39.73
2017-09-26T06:06:18.595Z,40.87
2017-09-26T06:08:47.427Z,40.10
2017-09-26T06:11:15.643Z,32.03
2017-09-26T06:13:43.723Z,43.77
2017-09-26T06:16:11.800Z,34.23
2017-09-26T06:18:39.880Z,44.17
2017-09-26T06:21:08.707Z,40.37
2017-09-26T06:23:37.551Z,42.50
2017-09-26T06:26:05.618Z,44.17
2017-09-26T06:28:33.704Z,55.17
2017-09-26T06:31:02.560Z,64.90
2017-09-26T06:33:30.662Z,52.37
2017-09-26T06:35:59.511Z,52.23
2017-09-26T06:38:27.632Z,42.03
2017-09-26T06:40:56.484Z,47.13
2017-09-26T06:43:24.577Z,38.70
2017-09-26T06:45:52.655Z,40.50
2017-09-26T06:48:20.735Z,43.63
2017-09-26T06:50:49.584Z,39.13
2017-09-26T06:53:17.664Z,37.67
2017-09-26T06:55:45.743Z,34.17
2017-09-26T06:58:13.828Z,44.63
2017-09-26T07:00:41.898Z,35.87
2017-09-26T07:03:09.979Z,39.03
2017-09-26T07:05:38.060Z,43.30
2017-09-26T07:08:06.921Z,39.23
2017-09-26T07:10:35.015Z,43.10
2017-09-26T07:13:03.100Z,38.27
2017-09-26T07:15:31.196Z,49.60
2017-09-26T07:17:59.284Z,47.13
2017-09-26T07:20:27.359Z,56.03
2017-09-26T07:22:55.450Z,45.90
2017-09-26T07:25:23.536Z,46.73
2017-09-26T07:27:51.628Z,42.83
2017-09-26T07:30:19.709Z,43.10
2017-09-26T07:32:48.591Z,42.33
2017-09-26T07:35:16.656Z,37.03
2017-09-26T07:37:44.752Z,34.67
2017-09-26T07:40:13.610Z,33.30
2017-09-26T07:42:41.679Z,33.43
2017-09-26T07:45:09.772Z,29.27
2017-09-26T07:47:37.847Z,41.93
2017-09-26T07:50:05.932Z,38.67
2017-09-26T07:52:34.785Z,46.70
2017-09-26T07:55:02.870Z,37.50
2017-09-26T07:57:30.944Z,36.80
2017-09-26T07:59:59.032Z,31.60
2017-09-26T08:02:27.368Z,34.37
2017-09-26T08:04:55.685Z,32.70
2017-09-26T08:07:24.049Z,37.43
2017-09-26T08:09:52.383Z,39.57
2017-09-26T08:12:20.463Z,34.63
2017-09-26T08:14:48.767Z,37.87
2017-09-26T08:17:16.844Z,37.13
2017-09-26T08:19:44.927Z,44.40
2017-09-26T08:22:12.999Z,42.77
2017-09-26T08:24:41.547Z,44.70
2017-09-26T08:27:09.623Z,41.03
2017-09-26T08:29:38.475Z,41.37
2017-09-26T08:32:07.319Z,39.33
2017-09-26T08:34:35.412Z,38.07
2017-09-26T08:37:03.496Z,36.00
2017-09-26T08:39:31.576Z,33.20
2017-09-26T08:42:00.428Z,34.80
2017-09-26T08:44:28.516Z,38.07
2017-09-26T08:46:56.608Z,33.80
2017-09-26T08:49:24.679Z,33.40
2017-09-26T08:51:52.803Z,30.23
2017-09-26T08:54:20.886Z,33.30
2017-09-26T08:56:48.967Z,35.47
2017-09-26T08:59:17.045Z,31.50
2017-09-26T09:01:45.147Z,33.10
2017-09-26T09:04:13.995Z,28.97
2017-09-26T09:06:42.077Z,34.53
2017-09-26T09:09:10.159Z,29.10
2017-09-26T09:11:38.239Z,30.10
2017-09-26T09:14:06.321Z,29.17
2017-09-26T09:16:35.171Z,30.63
2017-09-26T09:19:03.261Z,28.10
2017-09-26T09:21:31.343Z,25.03
2017-09-26T09:23:59.423Z,30.90
2017-09-26T09:26:27.492Z,29.80
2017-09-26T09:28:55.575Z,34.10
2017-09-26T09:31:23.652Z,29.93
2017-09-26T09:33:51.748Z,28.03
2017-09-26T09:36:20.596Z,20.90
2017-09-26T09:38:48.679Z,25.57
2017-09-26T09:41:16.743Z,24.50
2017-09-26T09:43:44.825Z,24.83
2017-09-26T09:46:12.899Z,22.73
2017-09-26T09:48:40.989Z,27.53
2017-09-26T09:51:09.839Z,27.23
2017-09-26T09:53:37.939Z,24.00
2017-09-26T09:56:06.803Z,26.83
2017-09-26T09:58:34.891Z,26.43
2017-09-26T10:01:02.972Z,20.37
2017-09-26T10:03:31.065Z,22.07
2017-09-26T10:05:59.908Z,22.23
2017-09-26T10:08:28.004Z,22.87
2017-09-26T10:10:56.087Z,24.07
2017-09-26T10:13:24.171Z,20.90
2017-09-26T10:15:53.019Z,23.43
2017-09-26T10:18:21.107Z,23.80
2017-09-26T10:20:49.174Z,21.67
2017-09-26T10:23:17.264Z,19.87
2017-09-26T10:25:45.342Z,19.57
2017-09-26T10:28:14.188Z,19.60
2017-09-26T10:30:42.276Z,19.77
2017-09-26T10:33:10.352Z,20.77
2017-09-26T10:35:38.432Z,19.73
2017-09-26T10:38:06.519Z,20.90
2017-09-26T10:40:34.599Z,22.17
2017-09-26T10:43:03.457Z,18.90
2017-09-26T10:45:31.565Z,19.10
2017-09-26T10:48:00.426Z,19.63
2017-09-26T10:50:28.559Z,18.93
2017-09-26T10:52:56.640Z,19.60
2017-09-26T10:55:24.720Z,20.10
2017-09-26T10:57:52.816Z,20.83
2017-09-26T11:00:20.899Z,22.80
2017-09-26T11:02:48.980Z,21.90
2017-09-26T11:05:17.065Z,20.03
2017-09-26T11:07:45.912Z,24.40
2017-09-26T11:10:14.004Z,18.67
2017-09-26T11:12:42.082Z,19.03
2017-09-26T11:15:10.168Z,19.77
2017-09-26T11:17:39.016Z,17.70
2017-09-26T11:20:07.108Z,20.60
2017-09-26T11:22:35.196Z,19.93
2017-09-26T11:25:04.285Z,18.57
2017-09-26T11:27:32.364Z,21.13
2017-09-26T11:30:00.439Z,19.77
2017-09-26T11:32:28.513Z,23.40
2017-09-26T11:34:56.593Z,21.17
2017-09-26T11:37:25.424Z,19.10
2017-09-26T11:39:53.519Z,19.00
2017-09-26T11:42:21.592Z,20.53
2017-09-26T11:44:49.680Z,19.20
2017-09-26T11:47:17.764Z,22.50
2017-09-26T11:49:45.844Z,17.30
2017-09-26T11:52:13.936Z,21.10
2017-09-26T11:54:42.802Z,18.80
2017-09-26T11:57:10.877Z,20.97
2017-09-26T11:59:38.961Z,19.70
2017-09-26T12:02:07.807Z,24.03
2017-09-26T12:04:35.905Z,18.63
2017-09-26T12:07:04.147Z,18.83
2017-09-26T12:09:32.233Z,18.60
2017-09-26T12:12:00.304Z,19.70
2017-09-26T12:14:28.375Z,16.23
2017-09-26T12:16:56.449Z,19.70
2017-09-26T12:19:24.537Z,16.93
2017-09-26T12:21:52.607Z,17.73
2017-09-26T12:24:20.700Z,18.73
2017-09-26T12:26:48.784Z,20.63
2017-09-26T12:29:17.648Z,20.00
2017-09-26T12:31:45.733Z,19.13
2017-09-26T12:34:14.587Z,23.17
2017-09-26T12:36:42.668Z,17.80
2017-09-26T12:39:10.739Z,18.13
2017-09-26T12:41:38.828Z,19.00
2017-09-26T12:44:06.901Z,20.50
2017-09-26T12:46:34.979Z,19.03
2017-09-26T12:49:03.052Z,20.20
2017-09-26T12:51:31.137Z,17.90
2017-09-26T12:53:59.212Z,19.70
2017-09-26T12:56:28.070Z,20.50
2017-09-26T12:58:56.135Z,20.80
2017-09-26T13:01:24.216Z,19.33
2017-09-26T13:03:52.295Z,17.53
2017-09-26T13:06:20.384Z,19.20
2017-09-26T13:08:48.443Z,18.80
2017-09-26T13:11:16.527Z,17.73
2017-09-26T13:13:44.596Z,16.07
2017-09-26T13:16:12.677Z,18.47
2017-09-26T13:18:40.763Z,17.20
2017-09-26T13:21:09.612Z,17.30
2017-09-26T13:23:37.685Z,16.03
2017-09-26T13:26:05.780Z,15.43
2017-09-26T13:28:33.858Z,17.70
2017-09-26T13:31:01.933Z,14.90
2017-09-26T13:33:30.020Z,15.03
2017-09-26T13:35:58.872Z,14.73
2017-09-26T13:38:26.960Z,15.87
2017-09-26T13:40:55.048Z,15.17
2017-09-26T13:43:23.901Z,14.83
2017-09-26T13:45:51.987Z,14.73
2017-09-26T13:48:20.060Z,14.00
2017-09-26T13:50:48.149Z,15.23
2017-09-26T13:53:16.217Z,16.30
2017-09-26T13:55:44.293Z,15.07
2017-09-26T13:58:12.373Z,15.03
2017-09-26T14:00:41.224Z,14.87
2017-09-26T14:03:09.295Z,13.80
2017-09-26T14:05:37.369Z,16.03
2017-09-26T14:08:05.495Z,13.80
2017-09-26T14:10:34.347Z,14.20
2017-09-26T14:13:02.432Z,15.43
2017-09-26T14:15:30.515Z,14.63
2017-09-26T14:17:59.367Z,18.00
2017-09-26T14:20:27.455Z,13.00
2017-09-26T14:22:55.540Z,14.87
2017-09-26T14:25:23.624Z,13.83
2017-09-26T14:27:52.480Z,13.77
2017-09-26T14:30:20.580Z,11.90
2017-09-26T14:32:48.646Z,13.83
2017-09-26T14:35:16.729Z,13.83
2017-09-26T14:37:45.577Z,13.30
2017-09-26T14:40:13.739Z,12.50
2017-09-26T14:42:41.840Z,15.07
2017-09-26T14:45:09.920Z,12.63
2017-09-26T14:47:38.035Z,12.93
2017-09-26T14:50:06.128Z,13.20
2017-09-26T14:52:34.231Z,15.67
2017-09-26T14:55:02.327Z,12.93
2017-09-26T14:57:30.426Z,13.10
2017-09-26T14:59:59.251Z,12.57
2017-09-26T15:02:27.359Z,12.30
2017-09-26T15:04:55.435Z,12.40
2017-09-26T15:07:23.532Z,13.50
2017-09-26T15:09:52.417Z,14.37
2017-09-26T15:12:21.308Z,14.57
2017-09-26T15:14:50.156Z,14.00
2017-09-26T15:17:18.308Z,13.10
2017-09-26T15:19:47.158Z,14.30
2017-09-26T15:22:16.070Z,13.93
2017-09-26T15:24:44.919Z,14.47
2017-09-26T15:27:13.007Z,15.23
2017-09-26T15:29:41.091Z,14.57
2017-09-26T15:32:09.962Z,14.50
2017-09-26T15:34:38.036Z,16.07
2017-09-26T15:37:06.125Z,17.60
2017-09-26T15:39:35.027Z,16.17
2017-09-26T15:42:03.866Z,16.57
2017-09-26T15:44:31.952Z,14.80
2017-09-26T15:47:00.050Z,14.93
2017-09-26T15:49:28.899Z,14.67
2017-09-26T15:51:56.991Z,16.30
2017-09-26T15:54:25.072Z,15.27
2017-09-26T15:56:53.162Z,15.70
2017-09-26T15:59:22.039Z,16.03
2017-09-26T16:01:50.125Z,14.53
2017-09-26T16:04:18.983Z,16.23
2017-09-26T16:06:47.060Z,15.40
2017-09-26T16:09:15.144Z,15.10
2017-09-26T16:11:43.223Z,14.20
2017-09-26T16:14:11.298Z,14.33
2017-09-26T16:16:39.382Z,14.40
2017-09-26T16:19:08.231Z,14.50
2017-09-26T16:21:36.320Z,14.47
2017-09-26T16:24:04.401Z,18.90
2017-09-26T16:26:32.484Z,16.30
2017-09-26T16:29:01.330Z,16.17
2017-09-26T16:31:29.410Z,15.77
2017-09-26T16:33:57.494Z,17.10
2017-09-26T16:36:25.579Z,15.87
2017-09-26T16:38:53.651Z,17.03
2017-09-26T16:41:21.737Z,15.80
2017-09-26T16:43:50.571Z,17.47
2017-09-26T16:46:18.711Z,16.17
2017-09-26T16:48:47.561Z,16.30
2017-09-26T16:51:15.645Z,17.47
2017-09-26T16:53:43.715Z,16.43
2017-09-26T16:56:11.804Z,17.83
2017-09-26T16:58:39.878Z,19.80
2017-09-26T17:01:08.736Z,15.20
2017-09-26T17:03:36.803Z,18.60
2017-09-26T17:06:04.902Z,17.73
2017-09-26T17:08:32.979Z,23.37
2017-09-26T17:11:01.078Z,19.83
2017-09-26T17:13:29.915Z,20.50
2017-09-26T17:15:58.384Z,20.43
2017-09-26T17:18:26.472Z,18.37
2017-09-26T17:20:54.559Z,19.50
2017-09-26T17:23:22.652Z,21.73
2017-09-26T17:25:51.494Z,22.33
2017-09-26T17:28:19.587Z,20.20
2017-09-26T17:30:47.667Z,20.30
2017-09-26T17:33:15.756Z,24.17
2017-09-26T17:35:43.822Z,29.07
2017-09-26T17:38:11.903Z,24.40
2017-09-26T17:40:40.747Z,26.27
2017-09-26T17:43:08.832Z,22.33
2017-09-26T17:45:36.903Z,22.17
2017-09-26T17:48:04.990Z,22.90
2017-09-26T17:50:33.079Z,30.67
2017-09-26T17:53:01.159Z,30.10
2017-09-26T17:55:30.008Z,31.10
2017-09-26T17:57:58.088Z,33.33
2017-09-26T18:00:26.160Z,25.97
2017-09-26T18:02:54.256Z,25.57
2017-09-26T18:05:22.327Z,26.03
2017-09-26T18:07:50.407Z,25.60
2017-09-26T18:10:18.484Z,25.47
2017-09-26T18:12:46.567Z,26.10
2017-09-26T18:15:15.412Z,23.70
2017-09-26T18:17:43.499Z,28.57
2017-09-26T18:20:11.619Z,27.33
2017-09-26T18:22:40.476Z,29.23
2017-09-26T18:25:08.552Z,27.13
2017-09-26T18:27:36.683Z,31.30
2017-09-26T18:30:04.756Z,28.73
2017-09-26T18:32:32.887Z,28.53
2017-09-26T18:35:01.799Z,30.37
2017-09-26T18:37:29.926Z,27.63
2017-09-26T18:39:58.046Z,31.90
2017-09-26T18:42:26.175Z,25.73
2017-09-26T18:44:54.296Z,48.00
2017-09-26T18:47:22.443Z,35.87
2017-09-26T18:49:51.340Z,23.70
2017-09-26T18:52:20.187Z,27.30
2017-09-26T18:55:01.312Z,27.17
2017-09-26T18:57:30.202Z,30.33
2017-09-26T18:59:59.092Z,28.60
2017-09-26T19:02:28.004Z,28.60
2017-09-26T19:04:56.139Z,26.33
2017-09-26T19:07:24.285Z,27.00
2017-09-26T19:09:53.174Z,29.13
2017-09-26T19:12:21.308Z,25.33
2017-09-26T19:14:50.225Z,24.30
2017-09-26T19:17:18.375Z,31.93
2017-09-26T19:19:47.257Z,26.50
2017-09-26T19:22:16.156Z,28.40
2017-09-26T19:24:44.812Z,29.20
2017-09-26T19:27:13.070Z,31.07
2017-09-26T19:29:41.213Z,26.87
2017-09-26T19:32:09.334Z,30.33
2017-09-26T19:34:37.509Z,35.67
2017-09-26T19:37:05.709Z,33.47
2017-09-26T19:39:34.612Z,32.93
2017-09-26T19:42:02.748Z,35.20
2017-09-26T19:44:30.877Z,47.27
2017-09-26T19:46:59.030Z,51.83
2017-09-26T19:49:27.915Z,45.33
2017-09-26T19:51:56.807Z,50.10
2017-09-26T19:54:25.699Z,45.57
2017-09-26T19:56:54.543Z,39.20
2017-09-26T19:59:22.681Z,36.47
2017-09-26T20:01:50.815Z,38.77
2017-09-26T20:04:18.944Z,36.20
2017-09-26T20:06:47.107Z,31.33
2017-09-26T20:09:15.192Z,41.03
2017-09-26T20:11:43.316Z,30.63
2017-09-26T20:14:11.479Z,30.50
2017-09-26T20:16:39.610Z,27.73
2017-09-26T20:19:07.758Z,30.13
2017-09-26T20:21:36.647Z,27.77
2017-09-26T20:24:05.673Z,30.70
2017-09-26T20:26:33.791Z,29.70
2017-09-26T20:29:02.364Z,30.30
2017-09-26T20:31:30.439Z,33.80
2017-09-26T20:33:58.576Z,30.23
2017-09-26T20:36:26.651Z,28.83
2017-09-26T20:38:55.550Z,26.73
2017-09-26T20:41:23.691Z,30.77
2017-09-26T20:43:51.797Z,33.57
2017-09-26T20:46:19.872Z,33.53
2017-09-26T20:48:47.951Z,32.50
2017-09-26T20:51:17.563Z,30.23
2017-09-26T20:53:45.648Z,29.97
2017-09-26T20:56:13.741Z,29.37
2017-09-26T20:58:42.596Z,34.23
2017-09-26T21:01:10.679Z,29.60
2017-09-26T21:03:38.803Z,27.00
2017-09-26T21:06:06.890Z,27.60
2017-09-26T21:08:34.968Z,31.60
2017-09-26T21:11:03.043Z,29.13
2017-09-26T21:13:31.141Z,29.23
2017-09-26T21:15:59.222Z,32.80
2017-09-26T21:18:27.377Z,32.00
2017-09-26T21:20:55.456Z,32.63
2017-09-26T21:23:23.571Z,28.40
2017-09-26T21:25:52.419Z,36.40
2017-09-26T21:28:20.517Z,32.20
2017-09-26T21:30:48.603Z,35.20
2017-09-26T21:33:16.708Z,32.80
2017-09-26T21:35:44.792Z,33.37
2017-09-26T21:38:12.899Z,36.20
2017-09-26T21:40:40.979Z,35.77
2017-09-26T21:43:09.069Z,38.17
2017-09-26T21:45:37.919Z,46.43
2017-09-26T21:48:06.018Z,34.07
2017-09-26T21:50:34.105Z,35.07
2017-09-26T21:53:02.954Z,31.13
2017-09-26T21:55:31.044Z,35.40
2017-09-26T21:57:59.131Z,35.97
2017-09-26T22:00:27.288Z,33.00
2017-09-26T22:02:55.384Z,31.40
2017-09-26T22:05:24.236Z,34.10
2017-09-26T22:07:52.345Z,35.97
2017-09-26T22:10:21.191Z,41.73
2017-09-26T22:12:49.328Z,33.50
2017-09-26T22:15:17.420Z,32.13
2017-09-26T22:17:46.277Z,37.07
2017-09-26T22:20:15.117Z,32.17
2017-09-26T22:22:43.198Z,26.93
2017-09-26T22:25:11.285Z,27.30
2017-09-26T22:27:39.360Z,31.93
2017-09-26T22:30:07.452Z,29.83
2017-09-26T22:32:36.308Z,32.87
2017-09-26T22:35:04.431Z,34.30
2017-09-26T22:37:33.276Z,27.97
2017-09-26T22:40:01.371Z,31.47
2017-09-26T22:42:29.507Z,28.83
2017-09-26T22:44:58.528Z,28.70
2017-09-26T22:47:26.602Z,34.33
2017-09-26T22:49:54.703Z,34.13
2017-09-26T22:52:23.551Z,37.40
2017-09-26T22:54:51.649Z,31.93
2017-09-26T22:57:19.727Z,27.13
2017-09-26T22:59:47.807Z,34.40
2017-09-26T23:02:16.660Z,28.80
2017-09-26T23:04:44.757Z,29.93
2017-09-26T23:07:12.836Z,30.20
2017-09-26T23:09:41.699Z,28.60
2017-09-26T23:12:09.773Z,29.60
2017-09-26T23:14:37.868Z,31.47
2017-09-26T23:17:05.949Z,26.83
2017-09-26T23:19:34.807Z,31.37
2017-09-26T23:22:02.898Z,33.20
2017-09-26T23:24:30.987Z,33.43
2017-09-26T23:26:59.844Z,32.80
2017-09-26T23:29:27.936Z,29.53
2017-09-26T23:31:56.016Z,35.07
2017-09-26T23:34:24.103Z,30.33
2017-09-26T23:36:52.952Z,33.13
2017-09-26T23:39:21.039Z,32.47
2017-09-26T23:41:49.116Z,30.20
2017-09-26T23:44:17.207Z,29.40
2017-09-26T23:46:46.060Z,34.20
2017-09-26T23:49:14.152Z,33.30
2017-09-26T23:51:42.238Z,35.10
2017-09-26T23:54:10.323Z,33.50
2017-09-26T23:56:39.166Z,32.57
2017-09-26T23:59:07.264Z,35.73
